Etusivu
METAR-TAF:

METAR-TAF

Lentoasemat :

Monastir, Tunisia

Leveyspiiri: 35-46N, Pituuspiiri: 010-45E, korkeus merenpinnasta: 2 m

Tämänhetkinen sää

Tämä raportti tehtiin 20 minuuttia sitten, kello 10.00 UTC
Tuuli 10 kn kaakosta
Lämpötila 17°C
Kosteus 77%
Ilmanpaine 1026 hPa
Näkyvyys: 7000 m
Hajonneita pilviä 2300 ft:n korkeudessa

METAR: DTMB 231000Z 14010KT 7000 BKN023 17/13 Q1026

Aika: 11:20 (10:20 UTC)

Sääennuste

Tämä raportti tehtiin 5 tuntia ja 20 minuuttia sitten, kello 05.00 UTC
Ennuste voimassa 23. päivästä klo 06 UTC - 24. päivään klo 06 UTC
Tuuli 5 kn etelästä/kaakosta
Näkyvyys: 8000 m
Todennäköisyys 30%
23. päivästä klo 06 UTC - 23. päivään klo 08 UTC
Näkyvyys: 4000 m
utua
Tulossa
23. päivästä klo 12 UTC - 23. päivään klo 14 UTC
Tuuli 11 kn kaakosta
Tulossa
23. päivästä klo 20 UTC - 23. päivään klo 22 UTC
Tuuli 5 kn etelästä/kaakosta

TAF: DTMB 230500Z 2306/2406 15005KT 8000 NSC PROB30 2306/2308 4000 BR BECMG 2312/2314 13011KT BECMG 2320/2322 15005KT

Säähavainnot ja -ennusteet yli 4000 lentoasemalta (METAR- ja TAF-raportit).

Käytössä olevat sääasemat on merkitty karttaan keltaisilla ja punaisilla pisteillä.

Aseta hiiri pisteen päälle nähdäksesi sääaseman nimen.

Klikkaa sitten nähdäksesi säähavainnot ja -ennusteet.

Kartan vaihtaminen: klikkaa mustalla rastilla varustettuja vihreitä pisteitä, niin voit zoomata sisään; viivalla varustettua vihreää pistettä, niin voit zoomata ulos tai vihreitä nuolia, niin pääset viereisille kartoille.


METAR-TAF: